Time;durP1;ratioP1;P1;durP2;ratioP2;P2;SDS_P1;SDS_P2;PMS_P1;PMS_P2;Temp;Humidity;BMP_temperature;BMP_pressure;BME280_temperature;BME280_humidity;BME280_pressure;Samples;Min_cycle;Max_cycle;Signal;HPM_P1;HPM_P2
2022/04/13 00:01:49;;;;;;;10.57;8.40;;;;;;;7.89;73.29;99546.47;6125067;23;20190;-73
2022/04/13 00:04:18;;;;;;;10.60;8.87;;;;;;;7.82;73.20;99536.81;6125286;23;20175;-74
2022/04/13 00:06:44;;;;;;;10.70;8.57;;;;;;;7.83;73.15;99536.63;6125307;23;20168;-74
2022/04/13 00:09:11;;;;;;;12.53;8.77;;;;;;;7.83;73.70;99535.81;6125306;23;20552;-74
2022/04/13 00:11:38;;;;;;;10.37;7.80;;;;;;;7.89;72.34;99530.47;6125060;23;20170;-74
2022/04/13 00:14:05;;;;;;;11.27;8.10;;;;;;;7.93;72.63;99530.88;6125244;23;20176;-74
2022/04/13 00:16:32;;;;;;;9.73;8.47;;;;;;;7.92;72.08;99530.06;6125264;23;20199;-74
2022/04/13 00:18:58;;;;;;;9.67;8.37;;;;;;;8.00;72.24;99528.22;6125041;23;20720;-74
2022/04/13 00:21:25;;;;;;;12.20;8.60;;;;;;;7.97;71.83;99530.28;6125187;23;20198;-74
2022/04/13 00:23:52;;;;;;;9.63;8.00;;;;;;;7.94;71.71;99520.00;6125060;23;20258;-74
2022/04/13 00:26:19;;;;;;;12.03;9.30;;;;;;;7.93;72.25;99523.69;6124892;23;20199;-74
2022/04/13 00:28:45;;;;;;;10.43;8.80;;;;;;;7.89;72.43;99521.63;6124938;23;20213;-74
2022/04/13 00:31:12;;;;;;;10.43;8.47;;;;;;;7.91;73.09;99530.25;6124959;23;20168;-74
2022/04/13 00:33:39;;;;;;;10.43;8.90;;;;;;;7.84;72.31;99526.75;6125668;23;20172;-73
2022/04/13 00:36:05;;;;;;;9.33;8.30;;;;;;;7.95;72.66;99524.31;6125119;23;20245;-74
2022/04/13 00:38:32;;;;;;;11.33;8.90;;;;;;;7.92;72.82;99523.91;6125179;23;20167;-74
2022/04/13 00:40:59;;;;;;;11.47;8.33;;;;;;;7.86;72.64;99525.53;6125108;23;20673;-74
2022/04/13 00:43:26;;;;;;;12.17;8.33;;;;;;;7.82;72.96;99523.47;6125031;23;20163;-74
2022/04/13 00:45:52;;;;;;;9.90;8.67;;;;;;;7.89;72.51;99519.78;6124723;23;20187;-74
2022/04/13 00:48:26;;;;;;;10.37;8.40;;;;;;;7.86;72.65;99522.03;6124669;23;20169;-75
2022/04/13 00:50:53;;;;;;;11.20;8.10;;;;;;;7.84;72.70;99522.25;6124395;23;20175;-74
2022/04/13 00:53:22;;;;;;;10.70;8.57;;;;;;;7.79;73.43;99532.69;6124879;23;20282;-73
2022/04/13 00:55:50;;;;;;;11.10;7.63;;;;;;;7.83;73.17;99519.81;6099169;23;20193;-73
2022/04/13 00:58:19;;;;;;;12.50;9.00;;;;;;;7.73;73.84;99525.53;6125302;23;20175;-73
2022/04/13 01:00:49;;;;;;;11.77;7.90;;;;;;;7.81;72.67;99522.66;6124703;23;20156;-72
2022/04/13 01:03:25;;;;;;;10.87;7.53;;;;;;;7.79;73.06;99519.38;6099768;23;20156;-73
2022/04/13 01:05:52;;;;;;;10.07;7.57;;;;;;;7.85;72.67;99515.06;6099083;23;20156;-73
2022/04/13 01:08:20;;;;;;;9.90;7.87;;;;;;;7.81;72.21;99508.50;6125282;23;20178;-73
2022/04/13 01:10:49;;;;;;;10.43;8.17;;;;;;;8.00;71.21;99507.69;6124698;23;20617;-74
2022/04/13 01:13:16;;;;;;;9.23;7.97;;;;;;;7.91;70.79;99509.75;6124952;23;20698;-73
2022/04/13 01:15:44;;;;;;;9.10;7.70;;;;;;;7.85;71.63;99510.56;6124634;23;20155;-75
2022/04/13 01:18:11;;;;;;;9.13;7.50;;;;;;;7.78;71.94;99515.06;6124888;23;20195;-73
2022/04/13 01:20:48;;;;;;;11.30;8.07;;;;;;;7.86;71.83;99512.19;6124920;23;20929;-73
2022/04/13 01:23:15;;;;;;;10.87;7.73;;;;;;;8.07;69.74;99513.81;6125105;23;20213;-73
2022/04/13 01:25:49;;;;;;;10.50;8.00;;;;;;;8.03;70.32;99509.94;6125029;23;20168;-73
2022/04/13 01:28:17;;;;;;;9.93;7.80;;;;;;;8.02;70.46;99505.66;6124700;23;20466;-73
2022/04/13 01:30:44;;;;;;;10.87;7.93;;;;;;;7.99;70.45;99508.72;6125220;23;20164;-73
2022/04/13 01:33:10;;;;;;;9.70;7.63;;;;;;;7.93;70.77;99509.53;6124968;23;20168;-73
2022/04/13 01:35:38;;;;;;;9.50;7.60;;;;;;;7.97;70.72;99505.44;6124767;23;20630;-72
2022/04/13 01:38:05;;;;;;;11.93;7.47;;;;;;;8.13;69.53;99513.00;6124612;23;20192;-73
2022/04/13 01:40:32;;;;;;;9.60;7.27;;;;;;;8.24;69.63;99515.06;6074683;23;20180;-73
2022/04/13 01:42:59;;;;;;;9.87;7.80;;;;;;;8.14;69.29;99514.66;6124866;23;20240;-74
2022/04/13 01:45:26;;;;;;;13.47;7.73;;;;;;;8.07;69.77;99515.69;6124737;23;20197;-75
2022/04/13 01:47:53;;;;;;;12.60;8.00;;;;;;;8.14;69.23;99517.31;6124903;23;20168;-75
2022/04/13 01:50:20;;;;;;;10.17;8.00;;;;;;;7.98;70.45;99509.72;6124403;23;20168;-75
2022/04/13 01:52:48;;;;;;;12.30;8.07;;;;;;;7.96;70.99;99512.63;6124659;23;20168;-75
2022/04/13 01:55:15;;;;;;;12.60;7.63;;;;;;;8.12;69.65;99518.56;6124516;23;20164;-75
2022/04/13 01:57:42;;;;;;;11.77;7.60;;;;;;;7.99;70.65;99522.03;6125677;23;20213;-75
2022/04/13 02:00:11;;;;;;;10.20;7.83;;;;;;;7.97;70.18;99519.59;6126561;23;20576;-75
2022/04/13 02:02:38;;;;;;;10.40;7.87;;;;;;;8.04;70.35;99518.75;6126540;23;20215;-74
2022/04/13 02:05:05;;;;;;;10.20;8.17;;;;;;;8.07;70.10;99526.38;6101004;23;20168;-74
2022/04/13 02:07:32;;;;;;;10.67;8.60;;;;;;;8.03;70.86;99517.94;6126655;23;20168;-74
2022/04/13 02:09:59;;;;;;;9.37;8.33;;;;;;;7.87;71.79;99523.69;6126400;23;20190;-75
2022/04/13 02:12:26;;;;;;;12.17;8.87;;;;;;;7.77;73.70;99531.28;6126289;23;20172;-75
2022/04/13 02:14:54;;;;;;;11.13;8.37;;;;;;;7.77;72.95;99525.94;6126593;23;20633;-75
2022/04/13 02:17:21;;;;;;;13.10;9.40;;;;;;;7.77;73.26;99533.94;6125817;23;20175;-76
2022/04/13 02:19:48;;;;;;;11.13;9.27;;;;;;;7.86;73.53;99524.72;6126480;23;20211;-75
2022/04/13 02:22:14;;;;;;;10.27;8.87;;;;;;;7.76;73.50;99532.28;6126067;23;20183;-75
2022/04/13 02:25:05;;;;;;;12.07;9.70;;;;;;;7.65;74.63;99528.38;6126073;23;20156;-75
2022/04/13 02:27:32;;;;;;;12.90;9.50;;;;;;;7.76;74.55;99522.44;6126500;23;20155;-75
2022/04/13 02:29:59;;;;;;;11.17;9.20;;;;;;;7.59;75.50;99528.38;6126007;23;20511;-74
2022/04/13 02:32:27;;;;;;;11.07;9.07;;;;;;;7.49;75.97;99536.78;6125840;23;20262;-73
2022/04/13 02:34:53;;;;;;;11.27;8.80;;;;;;;7.39;76.52;99542.47;6126222;23;20170;-73
2022/04/13 02:37:20;;;;;;;12.40;9.10;;;;;;;7.41;75.89;99536.97;6125682;23;20193;-73
2022/04/13 02:39:47;;;;;;;11.97;8.77;;;;;;;7.38;76.64;99538.16;6126208;23;20168;-73
2022/04/13 02:42:15;;;;;;;10.80;8.67;;;;;;;7.33;77.62;99534.47;6126105;23;20167;-73
2022/04/13 02:44:42;;;;;;;12.83;8.83;;;;;;;7.25;78.05;99540.81;6125980;23;20242;-73
2022/04/13 02:47:09;;;;;;;11.10;8.67;;;;;;;7.27;78.07;99540.63;6125913;23;20191;-73
2022/04/13 02:49:36;;;;;;;11.03;9.10;;;;;;;7.17;78.46;99537.50;6126095;23;20164;-73
2022/04/13 02:52:04;;;;;;;10.70;8.53;;;;;;;7.21;78.30;99541.41;6125690;23;20178;-73
2022/04/13 02:54:30;;;;;;;10.10;7.97;;;;;;;7.21;78.53;99536.91;6126005;23;20168;-73
2022/04/13 02:56:57;;;;;;;12.40;8.03;;;;;;;7.18;77.59;99537.31;6125881;23;20271;-73
2022/04/13 02:59:24;;;;;;;12.13;9.37;;;;;;;7.23;77.05;99539.38;6125778;23;20235;-73
2022/04/13 03:01:51;;;;;;;10.70;8.43;;;;;;;7.18;78.00;99537.31;6125621;23;20163;-73
2022/04/13 03:04:18;;;;;;;11.20;8.27;;;;;;;7.20;77.77;99537.91;6125849;23;20681;-73
2022/04/13 03:06:44;;;;;;;10.80;8.00;;;;;;;7.17;78.63;99541.00;6126076;23;20175;-73
2022/04/13 03:09:11;;;;;;;10.70;8.43;;;;;;;7.07;79.24;99540.53;6125507;23;20165;-73
2022/04/13 03:11:38;;;;;;;8.40;7.40;;;;;;;7.05;78.50;99543.38;6125478;23;20187;-73
2022/04/13 03:14:05;;;;;;;8.60;7.70;;;;;;;7.06;78.62;99546.88;6125713;23;20171;-73
2022/04/13 03:16:31;;;;;;;10.97;7.70;;;;;;;7.05;78.42;99543.38;6125249;23;20165;-73
2022/04/13 03:18:58;;;;;;;11.90;8.20;;;;;;;7.06;79.52;99544.22;6125588;23;20229;-73
2022/04/13 03:21:25;;;;;;;10.37;8.30;;;;;;;7.05;78.70;99542.56;6125805;23;20219;-73
2022/04/13 03:23:51;;;;;;;11.70;8.00;;;;;;;7.07;79.15;99545.88;6125523;23;20179;-73
2022/04/13 03:26:18;;;;;;;9.00;7.73;;;;;;;7.04;79.47;99551.59;6125758;23;20203;-74
2022/04/13 03:28:45;;;;;;;12.60;7.80;;;;;;;7.06;78.52;99549.53;6125731;23;20218;-75
2022/04/13 03:31:11;;;;;;;9.83;7.57;;;;;;;6.90;80.10;99556.03;6125564;23;20165;-73
2022/04/13 03:33:38;;;;;;;9.83;8.40;;;;;;;6.92;79.45;99566.47;6125212;23;20609;-73
2022/04/13 03:36:05;;;;;;;9.80;7.90;;;;;;;6.86;81.44;99570.75;6125494;23;20163;-73
2022/04/13 03:38:32;;;;;;;11.97;8.70;;;;;;;6.89;80.67;99566.88;6125231;23;20234;-74
2022/04/13 03:40:59;;;;;;;9.60;8.13;;;;;;;6.82;81.37;99568.69;6125317;23;20160;-73
2022/04/13 03:43:27;;;;;;;12.23;8.30;;;;;;;6.76;81.75;99567.66;6125410;23;20165;-73
2022/04/13 03:45:54;;;;;;;11.53;8.67;;;;;;;6.75;82.03;99574.00;6125390;23;20230;-73
2022/04/13 03:48:20;;;;;;;11.23;8.60;;;;;;;6.66;84.37;99574.34;6125538;23;20190;-73
2022/04/13 03:50:47;;;;;;;10.97;8.70;;;;;;;6.64;84.29;99578.00;6125061;23;20167;-73
2022/04/13 03:53:14;;;;;;;11.70;8.87;;;;;;;6.57;85.01;99571.00;6125168;23;20705;-73
2022/04/13 03:55:40;;;;;;;10.60;8.67;;;;;;;6.49;86.28;99576.47;6125389;23;20178;-73
2022/04/13 03:58:07;;;;;;;11.23;9.07;;;;;;;6.39;88.09;99584.00;6125090;23;20200;-73
2022/04/13 04:00:34;;;;;;;12.27;9.47;;;;;;;6.45;87.81;99581.38;6125100;23;20163;-73
2022/04/13 04:03:01;;;;;;;11.63;8.90;;;;;;;6.48;88.43;99588.97;6125460;23;20555;-75
2022/04/13 04:05:29;;;;;;;11.63;8.70;;;;;;;6.40;88.80;99583.78;6125084;23;20160;-75
2022/04/13 04:07:55;;;;;;;10.47;8.50;;;;;;;6.30;89.90;99591.28;6125482;23;20168;-75
2022/04/13 04:10:22;;;;;;;10.80;8.20;;;;;;;6.43;89.96;99591.41;6125155;23;20163;-74
2022/04/13 04:12:49;;;;;;;12.17;8.60;;;;;;;6.34;89.91;99589.91;6125671;23;20566;-74
2022/04/13 04:15:16;;;;;;;11.07;8.33;;;;;;;6.41;88.99;99589.94;6124782;23;20504;-74
2022/04/13 04:17:42;;;;;;;9.80;8.37;;;;;;;6.34;89.11;99594.38;6125621;23;20267;-74
2022/04/13 04:20:10;;;;;;;12.50;8.60;;;;;;;6.32;89.73;99591.91;6124742;23;20195;-75
2022/04/13 04:22:37;;;;;;;11.07;8.13;;;;;;;6.38;89.23;99588.50;6124593;23;20188;-74
2022/04/13 04:25:05;;;;;;;9.47;7.60;;;;;;;6.49;88.45;99589.78;6124841;23;20172;-74
2022/04/13 04:27:32;;;;;;;10.80;7.83;;;;;;;6.56;87.09;99595.97;6125111;23;20159;-74
2022/04/13 04:29:58;;;;;;;11.00;7.87;;;;;;;6.67;86.40;99605.28;6125069;23;20711;-75
2022/04/13 04:32:25;;;;;;;9.80;8.37;;;;;;;6.77;85.70;99600.41;6124657;23;20242;-75
2022/04/13 04:34:52;;;;;;;12.30;8.03;;;;;;;6.84;83.42;99599.44;6123586;23;20515;-75
2022/04/13 04:37:19;;;;;;;9.90;8.10;;;;;;;6.93;82.60;99611.56;6124710;23;20745;-77
2022/04/13 04:39:45;;;;;;;9.87;8.50;;;;;;;6.96;82.60;99621.00;6125247;23;20178;-77
2022/04/13 04:42:12;;;;;;;9.60;7.53;;;;;;;7.07;81.16;99613.28;6125170;23;20176;-74
2022/04/13 04:44:39;;;;;;;9.47;7.37;;;;;;;7.14;80.53;99615.19;6125310;23;20226;-72
2022/04/13 04:47:06;;;;;;;9.57;7.97;;;;;;;7.20;80.31;99617.03;6125292;23;20175;-73
2022/04/13 04:49:32;;;;;;;10.50;7.40;;;;;;;7.23;80.24;99621.97;6125060;23;20167;-73
2022/04/13 04:51:59;;;;;;;10.90;7.87;;;;;;;7.40;78.14;99620.59;6124900;23;20476;-74
2022/04/13 04:54:26;;;;;;;8.53;7.17;;;;;;;7.47;77.74;99624.94;6124717;23;20164;-74
2022/04/13 04:56:53;;;;;;;10.57;7.93;;;;;;;7.53;77.51;99618.81;6124750;23;20163;-74
2022/04/13 04:59:19;;;;;;;9.03;7.70;;;;;;;7.64;76.86;99619.25;6124835;23;20191;-73
2022/04/13 05:01:46;;;;;;;10.43;7.07;;;;;;;7.82;74.94;99631.00;6124715;23;20160;-74
2022/04/13 05:04:12;;;;;;;8.70;6.93;;;;;;;7.87;74.66;99623.22;6124738;23;20155;-74
2022/04/13 05:06:45;;;;;;;8.70;6.83;;;;;;;7.97;73.11;99626.31;6125194;23;20167;-74
2022/04/13 05:09:12;;;;;;;8.73;7.07;;;;;;;8.09;72.71;99628.38;6125027;23;20177;-74
2022/04/13 05:11:39;;;;;;;11.53;6.87;;;;;;;8.18;72.18;99633.31;6124666;23;21053;-73
2022/04/13 05:14:05;;;;;;;8.50;6.23;;;;;;;8.34;71.03;99637.47;6098696;23;20532;-74
2022/04/13 05:16:33;;;;;;;8.37;7.10;;;;;;;8.49;70.35;99634.59;6124817;23;20212;-75
2022/04/13 05:19:00;;;;;;;10.47;7.10;;;;;;;8.59;69.34;99635.81;6125683;23;20226;-76
2022/04/13 05:21:27;;;;;;;9.07;6.93;;;;;;;8.73;68.07;99640.09;6125589;23;20170;-76
2022/04/13 05:23:54;;;;;;;7.70;6.53;;;;;;;8.76;67.87;99638.88;6125854;23;20242;-76
2022/04/13 05:26:20;;;;;;;11.70;7.00;;;;;;;8.81;67.74;99644.44;6125598;23;20194;-76
2022/04/13 05:28:50;;;;;;;7.97;6.47;;;;;;;8.95;66.53;99646.06;6125841;23;20164;-76
2022/04/13 05:31:17;;;;;;;8.30;6.60;;;;;;;9.06;66.17;99655.25;6126070;23;20164;-76
2022/04/13 05:33:44;;;;;;;8.57;6.70;;;;;;;9.14;65.78;99653.22;6127006;23;20511;-76
2022/04/13 05:36:11;;;;;;;8.20;6.83;;;;;;;9.26;64.68;99651.53;6127651;23;20156;-75
2022/04/13 05:38:40;;;;;;;8.27;6.40;;;;;;;9.46;63.36;99654.13;6127499;23;20193;-76
2022/04/13 05:41:06;;;;;;;8.07;6.60;;;;;;;9.67;62.42;99653.00;6127283;23;20195;-76
2022/04/13 05:43:34;;;;;;;10.10;6.60;;;;;;;9.66;62.47;99662.03;6127409;23;20164;-76
2022/04/13 05:46:02;;;;;;;9.00;6.87;;;;;;;9.75;61.64;99655.44;6126136;23;20222;-75
2022/04/13 05:48:29;;;;;;;9.47;6.57;;;;;;;9.93;61.09;99662.75;6102124;23;20164;-76
2022/04/13 05:50:56;;;;;;;10.07;6.50;;;;;;;9.94;60.72;99664.38;6127189;23;20181;-76
2022/04/13 05:53:29;;;;;;;8.67;6.47;;;;;;;10.14;59.84;99665.09;6126953;23;20601;-76
2022/04/13 05:55:58;;;;;;;8.07;6.20;;;;;;;10.15;59.55;99662.25;6127105;23;20236;-76
2022/04/13 05:58:26;;;;;;;9.07;6.47;;;;;;;10.24;59.79;99664.66;6126832;23;20186;-77
2022/04/13 06:00:53;;;;;;;8.20;6.23;;;;;;;10.40;59.19;99664.97;6101228;23;20262;-76
2022/04/13 06:03:22;;;;;;;7.80;6.40;;;;;;;10.51;58.56;99661.56;6126893;23;20166;-76
2022/04/13 06:06:07;;;;;;;10.07;6.70;;;;;;;10.61;57.66;99671.78;6126668;23;20178;-76
2022/04/13 06:08:34;;;;;;;7.73;6.33;;;;;;;10.74;56.66;99665.47;6126827;23;20578;-76
2022/04/13 06:11:01;;;;;;;9.13;6.90;;;;;;;10.80;57.43;99667.28;6126509;23;20620;-76
2022/04/13 06:13:27;;;;;;;9.40;6.30;;;;;;;10.83;56.24;99662.31;6126937;23;20684;-76
2022/04/13 06:15:54;;;;;;;7.80;6.17;;;;;;;10.92;56.40;99665.53;6126935;23;20181;-76
2022/04/13 06:18:21;;;;;;;8.40;6.13;;;;;;;11.06;56.59;99667.03;6126722;23;20238;-76
2022/04/13 06:20:48;;;;;;;8.63;6.10;;;;;;;11.20;55.77;99671.22;6097103;23;20568;-76
2022/04/13 06:23:15;;;;;;;7.37;6.27;;;;;;;11.30;55.01;99674.22;6097834;23;20172;-76
2022/04/13 06:25:41;;;;;;;7.67;6.20;;;;;;;11.31;55.60;99670.50;6097128;23;20225;-76
2022/04/13 06:28:08;;;;;;;9.20;6.33;;;;;;;11.40;54.65;99674.50;6097802;23;20617;-76
2022/04/13 06:30:35;;;;;;;10.27;6.60;;;;;;;11.41;54.20;99673.47;6096981;23;20614;-75
2022/04/13 06:33:02;;;;;;;7.90;6.43;;;;;;;11.58;54.60;99671.00;6096290;23;20270;-76
2022/04/13 06:35:29;;;;;;;9.27;6.50;;;;;;;11.56;54.37;99670.41;6094627;23;20164;-75
2022/04/13 06:37:56;;;;;;;7.30;6.27;;;;;;;11.67;54.42;99671.50;6095932;23;20571;-76
2022/04/13 06:40:23;;;;;;;8.50;6.87;;;;;;;11.84;52.92;99664.53;6095882;23;20653;-75
2022/04/13 06:42:49;;;;;;;9.13;6.57;;;;;;;11.88;53.10;99668.38;6096007;23;20167;-76
2022/04/13 06:45:16;;;;;;;9.67;6.53;;;;;;;12.02;53.70;99674.41;6095145;23;20259;-76
2022/04/13 06:47:43;;;;;;;8.97;6.40;;;;;;;12.09;53.01;99677.78;6095644;23;20540;-76
2022/04/13 06:50:10;;;;;;;9.47;6.30;;;;;;;12.18;52.19;99668.38;6096210;23;20565;-76
2022/04/13 06:52:38;;;;;;;10.00;6.40;;;;;;;12.25;52.08;99669.09;6096534;23;20165;-76
2022/04/13 06:55:06;;;;;;;9.80;6.57;;;;;;;12.39;52.22;99673.22;6097353;23;20171;-76
2022/04/13 06:57:33;;;;;;;8.43;6.53;;;;;;;12.61;52.09;99668.13;6097041;23;20185;-77
2022/04/13 07:00:01;;;;;;;7.90;6.70;;;;;;;12.66;51.96;99676.31;6097056;23;20251;-76
2022/04/13 07:02:27;;;;;;;7.43;6.20;;;;;;;12.76;51.10;99661.25;6096948;23;20172;-76
2022/04/13 07:04:54;;;;;;;8.40;5.90;;;;;;;12.90;50.75;99672.59;6097589;23;20175;-76
2022/04/13 07:07:21;;;;;;;7.93;6.17;;;;;;;12.91;50.61;99673.41;6096549;23;20211;-76
2022/04/13 07:09:48;;;;;;;9.13;6.57;;;;;;;13.00;50.10;99666.63;6096857;23;20243;-76
2022/04/13 07:12:15;;;;;;;8.67;5.93;;;;;;;13.09;50.76;99670.59;6096373;23;20235;-77
2022/04/13 07:14:41;;;;;;;8.23;6.07;;;;;;;13.23;50.11;99667.47;6096706;23;20245;-76
2022/04/13 07:17:09;;;;;;;11.63;6.57;;;;;;;13.39;49.13;99665.91;6096557;23;20175;-76
2022/04/13 07:19:36;;;;;;;7.57;6.00;;;;;;;13.37;49.65;99669.91;6110738;23;20546;-76
2022/04/13 07:22:03;;;;;;;8.23;6.40;;;;;;;13.52;49.19;99676.44;6125691;23;20168;-76
2022/04/13 07:24:37;;;;;;;9.67;6.10;;;;;;;13.60;48.91;99672.53;6101724;23;20235;-76
2022/04/13 07:27:03;;;;;;;8.23;5.90;;;;;;;13.67;49.07;99667.84;6125448;23;20219;-75
2022/04/13 07:29:30;;;;;;;6.93;6.10;;;;;;;13.83;47.94;99669.78;6125540;23;20188;-76
2022/04/13 07:31:57;;;;;;;7.17;5.90;;;;;;;13.86;48.49;99672.00;6125767;23;20280;-76
2022/04/13 07:34:24;;;;;;;8.23;5.70;;;;;;;14.04;47.27;99674.50;6125330;23;20160;-76
2022/04/13 07:36:50;;;;;;;9.17;6.20;;;;;;;14.04;47.75;99669.09;6125196;23;20598;-77
2022/04/13 07:39:18;;;;;;;10.80;6.07;;;;;;;14.22;46.54;99672.69;6124341;23;20570;-76
2022/04/13 07:41:45;;;;;;;8.10;5.87;;;;;;;14.27;46.64;99668.19;6124422;23;20618;-75
2022/04/13 07:44:12;;;;;;;7.60;5.03;;;;;;;14.33;46.62;99675.28;6124835;23;20191;-77
2022/04/13 07:46:38;;;;;;;8.67;5.70;;;;;;;14.40;46.50;99667.09;6125251;23;20191;-75
2022/04/13 07:49:06;;;;;;;9.23;5.40;;;;;;;14.48;45.79;99669.38;6125811;23;20168;-75
2022/04/13 07:51:33;;;;;;;11.00;5.17;;;;;;;14.50;46.28;99678.88;6125286;23;20179;-76
2022/04/13 07:54:01;;;;;;;12.70;5.87;;;;;;;14.61;44.76;99677.16;6125700;23;20179;-76
2022/04/13 07:56:29;;;;;;;8.47;5.77;;;;;;;14.72;44.32;99684.34;6099495;23;20163;-76
2022/04/13 07:58:55;;;;;;;8.60;5.47;;;;;;;14.77;44.19;99681.75;6125573;23;20259;-76
2022/04/13 08:01:22;;;;;;;10.33;5.50;;;;;;;14.88;44.41;99691.59;6123848;23;20192;-75
2022/04/13 08:03:49;;;;;;;8.20;6.03;;;;;;;14.89;43.56;99697.81;6125178;23;20184;-76
2022/04/13 08:06:15;;;;;;;7.67;5.83;;;;;;;15.03;44.39;99695.59;6124842;23;20234;-76
2022/04/13 08:08:42;;;;;;;9.07;5.40;;;;;;;15.15;44.77;99697.16;6125550;23;20164;-75
2022/04/13 08:11:09;;;;;;;8.67;5.20;;;;;;;15.32;43.36;99694.44;6125034;23;20240;-75
2022/04/13 08:13:36;;;;;;;9.77;5.43;;;;;;;15.44;43.47;99692.44;6124886;23;20187;-76
2022/04/13 08:16:15;;;;;;;9.60;5.60;;;;;;;15.62;42.55;99694.06;6124733;23;20224;-78
2022/04/13 08:18:41;;;;;;;8.00;5.10;;;;;;;15.86;41.54;99704.34;6125058;23;20264;-76
2022/04/13 08:21:08;;;;;;;10.10;5.60;;;;;;;15.90;40.22;99695.75;6124782;23;20160;-75
2022/04/13 08:23:35;;;;;;;7.73;5.20;;;;;;;15.99;41.06;99702.34;6124686;23;20178;-79
2022/04/13 08:26:02;;;;;;;7.83;5.93;;;;;;;16.07;40.75;99693.78;6124956;23;20252;-76
2022/04/13 08:28:28;;;;;;;9.10;5.37;;;;;;;16.06;40.69;99697.53;6124889;23;20170;-76
2022/04/13 08:30:55;;;;;;;8.13;4.93;;;;;;;16.16;41.20;99687.66;6124760;23;20246;-76
2022/04/13 08:33:22;;;;;;;9.10;5.50;;;;;;;16.20;40.40;99699.59;6124982;23;20221;-76
2022/04/13 08:35:48;;;;;;;10.10;5.90;;;;;;;16.24;39.66;99695.31;6124675;23;20162;-76
2022/04/13 08:38:15;;;;;;;9.47;5.57;;;;;;;16.25;39.94;99682.63;6125271;23;20193;-75
2022/04/13 08:40:49;;;;;;;9.07;6.20;;;;;;;16.34;40.57;99693.78;6124520;23;20193;-76
2022/04/13 08:43:24;;;;;;;12.60;5.87;;;;;;;16.49;39.92;99686.63;6125119;23;20210;-76
2022/04/13 08:45:56;;;;;;;9.63;5.93;;;;;;;16.54;39.85;99694.81;6098945;23;20193;-75
2022/04/13 08:48:26;;;;;;;8.27;5.43;;;;;;;16.68;39.57;99690.63;6099123;23;20146;-76
2022/04/13 08:50:58;;;;;;;9.67;5.90;;;;;;;16.73;39.70;99693.38;6124549;23;20166;-76
2022/04/13 08:53:29;;;;;;;7.40;5.53;;;;;;;16.84;39.48;99698.88;6124800;23;20189;-75
2022/04/13 08:55:59;;;;;;;7.67;5.63;;;;;;;17.00;39.66;99714.97;6125049;23;20487;-75
2022/04/13 08:58:58;;;;;;;8.13;5.87;;;;;;;17.02;38.98;99703.88;6124474;23;20202;-76
2022/04/13 09:01:38;;;;;;;8.77;5.77;;;;;;;17.13;38.62;99706.38;6099203;23;20223;-75
2022/04/13 09:04:07;;;;;;;11.77;6.00;;;;;;;17.20;38.83;99706.19;6099630;23;20209;-77
2022/04/13 09:06:36;;;;;;;11.63;5.90;;;;;;;17.26;38.54;99707.03;6098591;23;20198;-76
2022/04/13 09:09:05;;;;;;;8.67;5.30;;;;;;;17.39;38.56;99709.28;6098947;23;20181;-76
2022/04/13 09:11:33;;;;;;;11.90;6.30;;;;;;;17.48;37.87;99696.88;6098755;23;20251;-76
2022/04/13 09:14:03;;;;;;;11.27;6.50;;;;;;;17.50;38.19;99691.97;6099814;23;20259;-76
2022/04/13 09:16:30;;;;;;;9.30;5.90;;;;;;;17.54;37.90;99684.97;6124027;23;20167;-76
2022/04/13 09:18:56;;;;;;;10.63;6.13;;;;;;;17.56;37.94;99688.22;6093758;23;20282;-76
2022/04/13 09:21:25;;;;;;;8.87;5.73;;;;;;;17.55;37.69;99694.72;6094130;23;20164;-76
2022/04/13 09:23:55;;;;;;;12.90;6.13;;;;;;;17.57;37.50;99690.69;6094239;23;20156;-76
2022/04/13 09:26:23;;;;;;;8.67;6.10;;;;;;;17.57;37.06;99689.88;6095043;23;20164;-77
2022/04/13 09:28:50;;;;;;;10.40;6.10;;;;;;;17.54;37.61;99680.34;6095544;23;20701;-76
2022/04/13 09:31:17;;;;;;;10.33;5.77;;;;;;;17.52;37.30;99681.72;6095441;23;20160;-76
2022/04/13 09:33:43;;;;;;;9.47;6.17;;;;;;;17.50;37.68;99687.38;6093849;23;20168;-76
2022/04/13 09:36:10;;;;;;;9.13;5.50;;;;;;;17.53;37.56;99677.94;6095246;23;20165;-77
2022/04/13 09:38:37;;;;;;;10.53;5.90;;;;;;;17.56;37.11;99675.50;6095444;23;20655;-75
2022/04/13 09:41:09;;;;;;;10.43;5.63;;;;;;;17.58;37.50;99686.94;6094954;23;20240;-76
2022/04/13 09:43:37;;;;;;;9.47;5.37;;;;;;;17.71;37.45;99676.69;6095397;23;20253;-76
2022/04/13 09:46:04;;;;;;;10.57;5.40;;;;;;;17.64;37.39;99676.13;6095037;23;20203;-76
2022/04/13 09:48:31;;;;;;;10.70;5.77;;;;;;;17.66;37.56;99679.38;6095079;23;20644;-76
2022/04/13 09:50:59;;;;;;;9.23;5.60;;;;;;;17.81;37.61;99679.44;6095291;23;20171;-76
2022/04/13 09:53:26;;;;;;;11.63;6.27;;;;;;;17.96;37.72;99685.69;6094845;23;20165;-77
2022/04/13 09:55:59;;;;;;;15.00;5.67;;;;;;;18.19;36.72;99686.34;6095180;23;20204;-76
2022/04/13 09:58:30;;;;;;;12.13;6.03;;;;;;;18.27;35.89;99680.38;6095454;23;20272;-76
2022/04/13 10:01:02;;;;;;;6.40;4.87;;;;;;;18.35;35.96;99686.06;6095154;23;20184;-80
2022/04/13 10:03:29;;;;;;;8.90;5.40;;;;;;;18.36;35.78;99674.16;6095533;23;20157;-76
2022/04/13 10:05:57;;;;;;;8.30;5.73;;;;;;;18.57;36.26;99677.72;6093553;23;20249;-77
2022/04/13 10:08:26;;;;;;;7.90;5.90;;;;;;;18.55;35.77;99676.38;6095330;23;20251;-76
2022/04/13 10:10:56;;;;;;;10.17;5.17;;;;;;;18.61;35.71;99670.69;6092837;23;20260;-75
2022/04/13 10:13:33;;;;;;;9.90;5.53;;;;;;;18.58;35.54;99676.63;6095417;23;20149;-81
2022/04/13 10:16:08;;;;;;;14.93;6.30;;;;;;;18.62;35.59;99664.16;6095073;23;20152;-76
2022/04/13 10:18:54;;;;;;;9.83;6.00;;;;;;;18.73;35.85;99659.53;6095886;23;20180;-76
2022/04/13 10:21:41;;;;;;;9.50;5.77;;;;;;;18.81;35.73;99661.72;6126343;23;20227;-77
2022/04/13 10:24:10;;;;;;;8.30;6.03;;;;;;;18.92;35.25;99657.91;6126720;23;20152;-76
2022/04/13 10:26:39;;;;;;;9.33;5.40;;;;;;;18.90;35.50;99654.63;6126479;23;20160;-75
2022/04/13 10:29:16;;;;;;;7.77;5.37;;;;;;;19.05;35.32;99660.06;6126315;23;20168;-76
2022/04/13 10:32:11;;;;;;;9.07;5.83;;;;;;;19.14;35.21;99650.25;6125887;23;20164;-78
2022/04/13 10:34:43;;;;;;;8.83;5.30;;;;;;;19.30;35.00;99653.75;6126688;23;20156;-76
2022/04/13 10:37:16;;;;;;;8.97;5.20;;;;;;;19.37;35.47;99629.81;6126051;23;20239;-76
2022/04/13 10:39:45;;;;;;;10.20;5.60;;;;;;;19.52;34.05;99650.72;6126233;23;20643;-77
2022/04/13 10:42:13;;;;;;;7.60;5.47;;;;;;;19.47;34.38;99639.88;6125856;23;20168;-76
2022/04/13 10:45:03;;;;;;;8.47;5.50;;;;;;;19.57;35.03;99632.50;6126261;23;20184;-76
2022/04/13 10:47:50;;;;;;;11.37;5.57;;;;;;;19.74;34.44;99641.13;6126075;23;20154;-76
2022/04/13 10:50:30;;;;;;;9.10;5.50;;;;;;;19.77;33.84;99632.41;6126034;23;20148;-76
2022/04/13 10:53:22;;;;;;;7.90;5.63;;;;;;;19.90;33.39;99636.41;6100098;23;20152;-75
2022/04/13 10:56:10;;;;;;;7.43;5.27;;;;;;;19.90;33.03;99625.53;6126161;23;20207;-76
2022/04/13 10:59:02;;;;;;;9.10;5.10;;;;;;;20.10;32.77;99624.63;6125863;23;20156;-76
2022/04/13 11:01:35;;;;;;;7.37;5.13;;;;;;;20.17;32.65;99625.09;6125590;23;20617;-76
2022/04/13 11:04:05;;;;;;;7.87;5.17;;;;;;;20.25;32.76;99631.88;6126066;23;20227;-76
2022/04/13 11:06:31;;;;;;;10.07;5.50;;;;;;;20.19;32.59;99620.22;6125610;23;20243;-75
2022/04/13 11:09:08;;;;;;;7.07;5.40;;;;;;;20.30;32.04;99621.78;6100202;23;20709;-75
2022/04/13 11:11:35;;;;;;;6.83;5.30;;;;;;;20.22;32.64;99627.78;6125931;23;20156;-76
2022/04/13 11:14:19;;;;;;;6.90;5.47;;;;;;;20.26;32.28;99615.25;6099836;23;20192;-77
2022/04/13 11:16:46;;;;;;;9.17;4.97;;;;;;;20.36;32.91;99617.09;6100153;23;20156;-76
2022/04/13 11:19:12;;;;;;;10.43;5.03;;;;;;;20.45;32.54;99621.66;6125391;23;20234;-76
2022/04/13 11:21:51;;;;;;;6.57;5.47;;;;;;;20.46;31.96;99627.91;6125679;23;20227;-76
2022/04/13 11:24:36;;;;;;;8.80;5.50;;;;;;;20.26;32.18;99623.41;6125768;23;20155;-76
2022/04/13 11:27:04;;;;;;;11.40;5.30;;;;;;;20.26;32.11;99617.16;6125255;23;20208;-76
2022/04/13 11:29:44;;;;;;;7.40;5.10;;;;;;;20.32;32.24;99607.91;6125797;23;20155;-76
2022/04/13 11:32:15;;;;;;;12.53;5.07;;;;;;;20.46;32.22;99623.28;6099721;23;20236;-76
2022/04/13 11:34:57;;;;;;;7.90;4.77;;;;;;;20.51;32.05;99625.16;6125917;23;20219;-75
2022/04/13 11:37:33;;;;;;;6.00;5.13;;;;;;;20.62;32.29;99629.44;6100022;23;20156;-76
2022/04/13 11:40:10;;;;;;;8.17;4.83;;;;;;;20.81;31.92;99626.81;6125404;23;20183;-75
2022/04/13 11:42:37;;;;;;;7.23;4.90;;;;;;;21.01;31.78;99627.41;6125529;23;20497;-75